createdAt,value
2018-05-24T00:00:49.126Z,58.60
2018-05-24T00:03:16.882Z,58.70
2018-05-24T00:05:44.636Z,58.60
2018-05-24T00:08:12.399Z,58.60
2018-05-24T00:10:39.386Z,58.60
2018-05-24T00:13:06.382Z,58.60
2018-05-24T00:15:33.375Z,58.60
2018-05-24T00:18:00.368Z,58.60
2018-05-24T00:20:27.354Z,58.60
2018-05-24T00:22:54.345Z,58.60
2018-05-24T00:25:21.344Z,58.60
2018-05-24T00:27:48.343Z,58.60
2018-05-24T00:30:15.346Z,58.60
2018-05-24T00:32:42.330Z,58.60
2018-05-24T00:35:09.322Z,58.60
2018-05-24T00:37:36.322Z,58.60
2018-05-24T00:40:03.314Z,59.20
2018-05-24T00:42:30.309Z,58.60
2018-05-24T00:44:57.301Z,58.60
2018-05-24T00:47:25.079Z,58.60
2018-05-24T00:49:52.053Z,58.60
2018-05-24T00:52:19.066Z,58.60
2018-05-24T00:54:46.125Z,58.60
2018-05-24T00:57:13.053Z,58.60
2018-05-24T00:59:40.046Z,58.70
2018-05-24T01:02:07.806Z,58.60
2018-05-24T01:04:34.806Z,58.60
2018-05-24T01:07:01.799Z,58.60
2018-05-24T01:09:28.794Z,58.60
2018-05-24T01:11:55.790Z,58.70
2018-05-24T01:14:22.787Z,58.70
2018-05-24T01:16:49.774Z,58.70
2018-05-24T01:19:16.770Z,58.80
2018-05-24T01:21:44.525Z,58.80
2018-05-24T01:24:12.296Z,58.80
2018-05-24T01:26:40.056Z,58.80
2018-05-24T01:29:07.832Z,58.80
2018-05-24T01:31:35.587Z,58.80
2018-05-24T01:34:03.359Z,58.80
2018-05-24T01:36:36.466Z,58.80
2018-05-24T01:39:03.462Z,58.80
2018-05-24T01:41:30.462Z,58.80
2018-05-24T01:43:57.453Z,58.80
2018-05-24T01:46:24.455Z,58.80
2018-05-24T01:48:51.452Z,58.80
2018-05-24T01:51:18.445Z,58.80
2018-05-24T01:53:45.434Z,58.80
2018-05-24T01:56:12.438Z,58.80
2018-05-24T01:58:39.427Z,58.80
2018-05-24T02:01:06.438Z,58.80
2018-05-24T02:03:33.429Z,58.80
2018-05-24T02:06:00.423Z,58.90
2018-05-24T02:08:27.415Z,58.80
2018-05-24T02:10:54.406Z,58.90
2018-05-24T02:13:21.407Z,58.90
2018-05-24T02:15:48.398Z,58.90
2018-05-24T02:18:15.403Z,58.90
2018-05-24T02:20:42.408Z,58.90
2018-05-24T02:23:09.400Z,59.10
2018-05-24T02:25:37.166Z,58.90
2018-05-24T02:28:04.926Z,59.00
2018-05-24T02:30:32.678Z,59.10
2018-05-24T02:32:59.673Z,59.00
2018-05-24T02:35:26.669Z,59.00
2018-05-24T02:37:53.666Z,59.00
2018-05-24T02:40:20.659Z,59.00
2018-05-24T02:42:47.650Z,59.00
2018-05-24T02:45:14.642Z,59.10
2018-05-24T02:47:41.678Z,59.10
2018-05-24T02:50:08.671Z,59.00
2018-05-24T02:52:36.435Z,59.10
2018-05-24T02:55:04.213Z,59.00
2018-05-24T02:57:31.216Z,59.00
2018-05-24T02:59:58.209Z,59.10
2018-05-24T03:02:25.219Z,59.10
2018-05-24T03:04:52.978Z,59.10
2018-05-24T03:07:19.975Z,59.10
2018-05-24T03:09:46.964Z,59.10
2018-05-24T03:12:13.973Z,59.10
2018-05-24T03:14:40.963Z,59.00
2018-05-24T03:17:08.739Z,59.10
2018-05-24T03:19:36.504Z,59.20
2018-05-24T03:22:04.283Z,59.10
2018-05-24T03:24:31.275Z,59.10
2018-05-24T03:26:58.266Z,59.10
2018-05-24T03:29:25.270Z,59.10
2018-05-24T03:31:53.019Z,59.20
2018-05-24T03:34:20.020Z,59.20
2018-05-24T03:36:47.779Z,59.20
2018-05-24T03:39:15.545Z,59.20
2018-05-24T03:41:43.301Z,59.20
2018-05-24T03:44:11.062Z,59.10
2018-05-24T03:46:38.818Z,59.10
2018-05-24T03:49:06.583Z,59.10
2018-05-24T03:51:34.354Z,59.70
2018-05-24T03:54:02.119Z,59.10
2018-05-24T03:56:29.899Z,59.10
2018-05-24T04:01:47.890Z,59.20
2018-05-24T04:04:20.831Z,59.80
2018-05-24T04:06:48.586Z,59.20
2018-05-24T04:09:16.353Z,59.20
2018-05-24T04:11:44.115Z,59.20
2018-05-24T04:14:11.881Z,59.20
2018-05-24T04:16:39.637Z,59.20
2018-05-24T04:19:07.419Z,59.20
2018-05-24T04:21:34.406Z,59.20
2018-05-24T04:24:01.427Z,59.20
2018-05-24T04:26:28.544Z,59.20
2018-05-24T04:28:56.290Z,59.20
2018-05-24T04:31:23.281Z,59.20
2018-05-24T04:33:50.270Z,59.20
2018-05-24T04:36:17.267Z,59.20
2018-05-24T04:38:44.260Z,59.20
2018-05-24T04:41:11.259Z,59.20
2018-05-24T04:43:38.278Z,59.20
2018-05-24T04:46:06.037Z,59.20
2018-05-24T04:48:33.802Z,59.20
2018-05-24T04:51:01.576Z,59.30
2018-05-24T04:53:29.334Z,59.30
2018-05-24T04:55:57.093Z,59.30
2018-05-24T04:58:24.856Z,59.30
2018-05-24T05:00:52.628Z,59.20
2018-05-24T05:03:20.391Z,59.30
2018-05-24T05:05:50.356Z,59.30
2018-05-24T05:08:17.368Z,59.30
2018-05-24T05:10:44.366Z,59.30
2018-05-24T05:13:11.538Z,59.20
2018-05-24T05:15:39.317Z,59.30
2018-05-24T05:18:07.070Z,59.30
2018-05-24T05:20:34.853Z,59.30
2018-05-24T05:23:01.901Z,59.30
2018-05-24T05:25:28.836Z,59.30
2018-05-24T05:27:56.596Z,59.30
2018-05-24T05:30:24.357Z,59.40
2018-05-24T05:32:52.154Z,59.40
2018-05-24T05:35:19.139Z,59.40
2018-05-24T05:37:46.133Z,59.30
2018-05-24T05:40:13.169Z,59.30
2018-05-24T05:42:41.111Z,59.40
2018-05-24T05:45:08.104Z,59.40
2018-05-24T05:47:35.107Z,59.40
2018-05-24T05:50:02.102Z,59.40
2018-05-24T05:52:29.103Z,59.40
2018-05-24T05:54:56.866Z,60.00
2018-05-24T05:57:24.629Z,59.40
2018-05-24T05:59:52.390Z,59.60
2018-05-24T06:02:19.394Z,59.40
2018-05-24T06:04:46.392Z,59.40
2018-05-24T06:07:14.162Z,59.40
2018-05-24T06:09:41.989Z,59.50
2018-05-24T06:12:08.966Z,59.50
2018-05-24T06:14:36.726Z,59.50
2018-05-24T06:17:04.506Z,59.50
2018-05-24T06:19:32.270Z,59.40
2018-05-24T06:21:59.266Z,59.40
2018-05-24T06:24:26.263Z,59.30
2018-05-24T06:26:54.185Z,59.70
2018-05-24T06:29:21.191Z,59.80
2018-05-24T06:31:48.181Z,59.50
2018-05-24T06:34:15.194Z,59.50
2018-05-24T06:36:42.230Z,59.80
2018-05-24T06:39:09.238Z,60.40
2018-05-24T06:41:36.998Z,59.90
2018-05-24T06:44:04.772Z,59.70
2018-05-24T06:46:32.600Z,59.50
2018-05-24T06:49:00.319Z,60.20
2018-05-24T06:51:27.319Z,60.20
2018-05-24T06:53:54.301Z,60.50
2018-05-24T06:56:21.298Z,60.00
2018-05-24T06:58:48.291Z,60.00
2018-05-24T07:01:15.283Z,59.80
2018-05-24T07:03:42.274Z,59.80
2018-05-24T07:06:10.036Z,59.80
2018-05-24T07:08:37.821Z,59.80
2018-05-24T07:11:04.943Z,59.80
2018-05-24T07:13:32.616Z,59.90
2018-05-24T07:16:00.382Z,60.00
2018-05-24T07:18:28.163Z,59.90
2018-05-24T07:20:55.907Z,59.80
2018-05-24T07:23:23.854Z,59.80
2018-05-24T07:25:50.846Z,59.80
2018-05-24T07:28:17.867Z,59.70
2018-05-24T07:30:46.622Z,59.80
2018-05-24T07:33:13.615Z,59.80
2018-05-24T07:35:40.615Z,59.80
2018-05-24T07:38:07.608Z,59.80
2018-05-24T07:40:34.607Z,59.80
2018-05-24T07:43:01.610Z,59.90
2018-05-24T07:45:28.610Z,60.00
2018-05-24T07:47:55.608Z,60.70
2018-05-24T07:50:22.618Z,59.90
2018-05-24T07:52:50.404Z,59.80
2018-05-24T07:55:17.416Z,59.70
2018-05-24T07:57:44.419Z,59.80
2018-05-24T08:00:11.448Z,60.70
2018-05-24T08:02:38.461Z,60.00
2018-05-24T08:05:06.219Z,60.00
2018-05-24T08:07:33.992Z,60.00
2018-05-24T08:10:01.745Z,60.00
2018-05-24T08:12:29.527Z,60.00
2018-05-24T08:14:57.303Z,59.90
2018-05-24T08:17:24.322Z,59.80
2018-05-24T08:19:52.177Z,60.10
2018-05-24T08:22:19.190Z,59.90
2018-05-24T08:24:46.206Z,59.90
2018-05-24T08:27:13.204Z,60.00
2018-05-24T08:29:40.198Z,60.00
2018-05-24T08:32:07.214Z,60.00
2018-05-24T08:34:34.975Z,60.00
2018-05-24T08:37:01.974Z,59.90
2018-05-24T08:39:28.962Z,60.80
2018-05-24T08:41:55.968Z,59.90
2018-05-24T08:44:22.966Z,60.00
2018-05-24T08:46:50.743Z,60.90
2018-05-24T08:49:18.531Z,60.10
2018-05-24T08:51:45.520Z,60.10
2018-05-24T08:54:12.567Z,60.20
2018-05-24T08:56:39.715Z,60.10
2018-05-24T08:59:06.774Z,60.00
2018-05-24T09:01:33.981Z,60.20
2018-05-24T09:04:01.620Z,60.00
2018-05-24T09:06:28.618Z,60.00
2018-05-24T09:08:55.708Z,60.20
2018-05-24T09:11:22.713Z,60.20
2018-05-24T09:13:49.705Z,61.00
2018-05-24T09:16:16.694Z,60.10
2018-05-24T09:18:43.729Z,60.00
2018-05-24T09:21:11.490Z,60.40
2018-05-24T09:23:38.481Z,60.40
2018-05-24T09:26:06.245Z,60.10
2018-05-24T09:28:34.009Z,60.30
2018-05-24T09:31:01.770Z,63.90
2018-05-24T09:33:29.533Z,64.40
2018-05-24T09:35:57.298Z,63.30
2018-05-24T09:38:25.089Z,62.30
2018-05-24T09:40:52.106Z,62.20
2018-05-24T09:43:19.097Z,61.70
2018-05-24T09:45:46.147Z,60.90
2018-05-24T09:48:14.073Z,60.60
2018-05-24T09:50:41.836Z,60.60
2018-05-24T09:53:08.903Z,60.50
2018-05-24T09:55:35.818Z,60.50
2018-05-24T09:58:02.842Z,60.50
2018-05-24T10:00:29.837Z,60.40
2018-05-24T10:02:56.878Z,60.40
2018-05-24T10:05:24.654Z,60.30
2018-05-24T10:07:51.665Z,60.30
2018-05-24T10:10:18.673Z,60.50
2018-05-24T10:12:45.727Z,60.30
2018-05-24T10:15:12.739Z,60.50
2018-05-24T10:17:40.546Z,61.20
2018-05-24T10:20:07.571Z,60.60
2018-05-24T10:22:34.575Z,60.40
2018-05-24T10:25:01.568Z,60.50
2018-05-24T10:27:28.565Z,60.50
2018-05-24T10:29:55.562Z,60.30
2018-05-24T10:32:22.546Z,60.60
2018-05-24T10:34:49.537Z,60.60
2018-05-24T10:37:17.293Z,60.50
2018-05-24T10:39:45.082Z,60.40
2018-05-24T10:42:12.079Z,60.60
2018-05-24T10:44:39.079Z,60.60
2018-05-24T10:47:06.082Z,60.30
2018-05-24T10:49:33.077Z,60.60
2018-05-24T10:52:00.082Z,60.60
2018-05-24T10:54:27.114Z,60.40
2018-05-24T10:56:54.118Z,60.60
2018-05-24T10:59:21.115Z,60.60
2018-05-24T11:01:48.109Z,60.60
2018-05-24T11:04:15.114Z,60.60
2018-05-24T11:06:42.869Z,60.00
2018-05-24T11:09:10.638Z,61.20
2018-05-24T11:11:38.437Z,60.90
2018-05-24T11:14:05.400Z,60.50
2018-05-24T11:16:32.390Z,60.60
2018-05-24T11:18:59.382Z,60.50
2018-05-24T11:21:26.371Z,60.40
2018-05-24T11:23:53.357Z,60.60
2018-05-24T11:26:20.354Z,60.50
2018-05-24T11:28:47.359Z,60.50
2018-05-24T11:31:14.381Z,60.30
2018-05-24T11:33:42.954Z,60.40
2018-05-24T11:36:10.713Z,60.40
2018-05-24T11:38:38.514Z,60.40
2018-05-24T11:41:05.501Z,60.20
2018-05-24T11:43:32.629Z,60.30
2018-05-24T11:45:59.635Z,61.30
2018-05-24T11:48:26.650Z,60.20
2018-05-24T11:50:53.631Z,60.30
2018-05-24T11:53:20.638Z,60.20
2018-05-24T11:55:47.638Z,60.20
2018-05-24T11:58:14.653Z,60.20
2018-05-24T12:00:42.419Z,60.60
2018-05-24T12:03:10.185Z,61.00
2018-05-24T12:05:37.937Z,60.60
2018-05-24T12:08:05.805Z,60.60
2018-05-24T12:10:32.798Z,60.60
2018-05-24T12:12:59.807Z,60.40
2018-05-24T12:15:27.566Z,60.20
2018-05-24T12:17:55.317Z,60.30
2018-05-24T12:20:22.346Z,60.20
2018-05-24T12:22:49.398Z,60.20
2018-05-24T12:25:16.403Z,60.20
2018-05-24T12:27:43.397Z,60.10
2018-05-24T12:30:10.470Z,60.10
2018-05-24T12:32:38.225Z,60.20
2018-05-24T12:35:06.042Z,60.10
2018-05-24T12:37:33.068Z,60.10
2018-05-24T12:40:00.078Z,60.10
2018-05-24T12:42:27.844Z,60.20
2018-05-24T12:44:55.629Z,59.90
2018-05-24T12:47:22.625Z,60.10
2018-05-24T12:49:49.633Z,60.20
2018-05-24T12:52:16.629Z,60.10
2018-05-24T12:54:43.632Z,60.20
2018-05-24T12:57:10.643Z,60.10
2018-05-24T12:59:38.439Z,60.20
2018-05-24T13:02:05.463Z,60.20
2018-05-24T13:04:33.228Z,60.20
2018-05-24T13:07:00.260Z,60.10
2018-05-24T13:09:27.314Z,60.10
2018-05-24T13:11:55.158Z,60.90
2018-05-24T13:14:22.152Z,60.10
2018-05-24T13:16:49.172Z,60.10
2018-05-24T13:19:16.190Z,60.10
2018-05-24T13:21:43.190Z,60.10
2018-05-24T13:24:10.199Z,60.10
2018-05-24T13:26:37.207Z,60.10
2018-05-24T13:29:04.208Z,60.20
2018-05-24T13:31:31.205Z,60.10
2018-05-24T13:33:58.210Z,60.10
2018-05-24T13:36:26.040Z,60.10
2018-05-24T13:38:53.030Z,60.10
2018-05-24T13:41:20.022Z,60.20
2018-05-24T13:43:47.018Z,60.10
2018-05-24T13:46:14.782Z,60.10
2018-05-24T13:48:42.546Z,60.10
2018-05-24T13:51:10.306Z,60.20
2018-05-24T13:53:38.068Z,60.20
2018-05-24T13:56:05.824Z,60.10
2018-05-24T13:58:33.586Z,60.20
2018-05-24T14:01:01.351Z,60.10
2018-05-24T14:03:29.164Z,60.20
2018-05-24T14:05:56.158Z,60.20
2018-05-24T14:08:23.973Z,60.20
2018-05-24T14:10:50.929Z,60.20
2018-05-24T14:13:17.930Z,60.20
2018-05-24T14:15:44.921Z,60.20
2018-05-24T14:18:11.930Z,60.20
2018-05-24T14:20:38.929Z,60.20
2018-05-24T14:23:05.951Z,60.20
2018-05-24T14:25:32.947Z,60.20
2018-05-24T14:27:59.969Z,60.50
2018-05-24T14:30:26.961Z,63.70
2018-05-24T14:32:54.734Z,62.30
2018-05-24T14:35:21.729Z,62.30
2018-05-24T14:37:48.737Z,62.70
2018-05-24T14:40:15.772Z,62.10
2018-05-24T14:42:42.771Z,61.50
2018-05-24T14:45:09.759Z,62.10
2018-05-24T14:47:36.870Z,61.30
2018-05-24T14:50:03.978Z,61.70
2018-05-24T14:52:35.852Z,62.30
2018-05-24T14:55:02.861Z,61.20
2018-05-24T14:57:30.617Z,61.30
2018-05-24T14:59:58.384Z,61.30
2018-05-24T15:02:26.138Z,61.30
2018-05-24T15:04:56.276Z,61.20
2018-05-24T15:07:24.045Z,61.20
2018-05-24T15:09:51.046Z,61.20
2018-05-24T15:12:18.043Z,61.20
2018-05-24T15:14:45.065Z,61.30
2018-05-24T15:17:12.834Z,61.30
2018-05-24T15:19:40.617Z,62.50
2018-05-24T15:22:08.378Z,63.90
2018-05-24T15:24:35.382Z,63.80
2018-05-24T15:27:02.386Z,66.50
2018-05-24T15:29:29.373Z,67.40
2018-05-24T15:31:56.365Z,66.50
2018-05-24T15:34:24.150Z,63.40
2018-05-24T15:36:51.146Z,63.30
2018-05-24T15:39:18.142Z,62.90
2018-05-24T15:41:45.134Z,62.70
2018-05-24T15:44:12.135Z,62.50
2018-05-24T15:46:39.132Z,62.50
2018-05-24T15:49:06.138Z,62.40
2018-05-24T15:51:33.137Z,62.10
2018-05-24T15:54:00.894Z,61.80
2018-05-24T15:56:28.662Z,61.90
2018-05-24T15:58:56.429Z,61.80
2018-05-24T16:01:24.438Z,61.80
2018-05-24T16:03:51.446Z,61.80
2018-05-24T16:06:19.207Z,61.80
2018-05-24T16:08:46.968Z,61.80
2018-05-24T16:11:14.729Z,61.90
2018-05-24T16:13:42.518Z,61.90
2018-05-24T16:16:10.263Z,61.90
2018-05-24T16:18:37.247Z,61.80
2018-05-24T16:21:04.254Z,61.80
2018-05-24T16:23:32.016Z,61.80
2018-05-24T16:25:59.772Z,61.80
2018-05-24T16:28:27.548Z,61.80
2018-05-24T16:30:55.313Z,61.70
2018-05-24T16:33:23.089Z,61.70
2018-05-24T16:35:50.074Z,61.60
2018-05-24T16:38:17.070Z,61.60
2018-05-24T16:40:44.820Z,61.60
2018-05-24T16:43:12.578Z,61.60
2018-05-24T16:45:39.580Z,61.60
2018-05-24T16:48:06.598Z,61.60
2018-05-24T16:50:33.586Z,61.50
2018-05-24T16:53:00.588Z,61.60
2018-05-24T16:55:28.343Z,61.60
2018-05-24T16:57:56.094Z,61.60
2018-05-24T17:00:23.095Z,61.50
2018-05-24T17:02:50.098Z,61.70
2018-05-24T17:05:17.882Z,61.60
2018-05-24T17:07:44.882Z,61.60
2018-05-24T17:10:12.634Z,61.50
2018-05-24T17:12:39.682Z,62.30
2018-05-24T17:15:06.626Z,61.50
2018-05-24T17:17:33.628Z,61.40
2018-05-24T17:20:01.416Z,61.50
2018-05-24T17:22:28.420Z,61.50
2018-05-24T17:24:55.414Z,61.40
2018-05-24T17:27:22.417Z,62.00
2018-05-24T17:29:49.420Z,61.40
2018-05-24T17:32:16.433Z,61.50
2018-05-24T17:34:43.425Z,61.50
2018-05-24T17:37:10.424Z,61.50
2018-05-24T17:39:37.415Z,61.40
2018-05-24T17:42:04.415Z,61.50
2018-05-24T17:44:32.171Z,61.40
2018-05-24T17:46:59.941Z,61.40
2018-05-24T17:49:27.695Z,61.60
2018-05-24T17:51:55.457Z,61.60
2018-05-24T17:54:23.227Z,61.60
2018-05-24T17:56:50.981Z,61.60
2018-05-24T17:59:18.755Z,61.70
2018-05-24T18:01:46.514Z,61.50
2018-05-24T18:04:14.270Z,61.60
2018-05-24T18:06:42.032Z,61.50
2018-05-24T18:09:09.074Z,61.50
2018-05-24T18:11:36.066Z,61.50
2018-05-24T18:14:03.131Z,61.60
2018-05-24T18:16:30.121Z,61.50
2018-05-24T18:18:57.935Z,61.60
2018-05-24T18:21:24.993Z,61.60
2018-05-24T18:23:52.319Z,61.50
2018-05-24T18:26:19.310Z,61.50
2018-05-24T18:28:46.312Z,61.50
2018-05-24T18:31:13.721Z,61.60
2018-05-24T18:33:41.497Z,61.60
2018-05-24T18:36:09.313Z,61.70
2018-05-24T18:38:37.046Z,61.50
2018-05-24T18:41:04.029Z,61.50
2018-05-24T18:43:31.059Z,61.50
2018-05-24T18:45:58.184Z,61.70
2018-05-24T18:48:25.191Z,62.50
2018-05-24T18:50:52.195Z,61.70
2018-05-24T18:53:19.218Z,61.60
2018-05-24T18:55:46.210Z,61.60
2018-05-24T18:58:13.258Z,61.60
2018-05-24T19:00:40.261Z,61.70
2018-05-24T19:03:07.281Z,61.60
2018-05-24T19:05:35.100Z,62.70
2018-05-24T19:08:02.180Z,62.60
2018-05-24T19:10:29.171Z,62.70
2018-05-24T19:12:56.187Z,63.00
2018-05-24T19:15:23.214Z,62.60
2018-05-24T19:17:50.211Z,62.70
2018-05-24T19:20:17.204Z,62.30
2018-05-24T19:22:44.205Z,61.80
2018-05-24T19:25:11.203Z,61.60
2018-05-24T19:27:38.195Z,61.60
2018-05-24T19:30:05.203Z,61.50
2018-05-24T19:32:32.204Z,62.50
2018-05-24T19:34:59.204Z,63.40
2018-05-24T19:37:26.326Z,62.50
2018-05-24T19:39:53.339Z,62.30
2018-05-24T19:42:20.350Z,62.20
2018-05-24T19:44:48.128Z,62.00
2018-05-24T19:47:15.160Z,62.00
2018-05-24T19:49:43.421Z,61.80
2018-05-24T19:52:11.737Z,61.70
2018-05-24T19:54:39.876Z,62.80
2018-05-24T19:57:07.874Z,61.70
2018-05-24T19:59:35.037Z,61.70
2018-05-24T20:02:02.781Z,61.70
2018-05-24T20:04:29.835Z,61.60
2018-05-24T20:06:56.894Z,61.70
2018-05-24T20:09:23.917Z,61.60
2018-05-24T20:11:50.979Z,61.60
2018-05-24T20:14:17.996Z,61.60
2018-05-24T20:16:45.009Z,61.60
2018-05-24T20:19:12.046Z,61.50
2018-05-24T20:21:39.048Z,61.50
2018-05-24T20:24:06.818Z,61.50
2018-05-24T20:26:33.886Z,61.50
2018-05-24T20:29:00.842Z,61.50
2018-05-24T20:31:27.852Z,61.50
2018-05-24T20:33:55.033Z,61.50
2018-05-24T20:36:23.967Z,61.50
2018-05-24T20:38:52.038Z,61.50
2018-05-24T20:41:19.048Z,61.50
2018-05-24T20:43:46.183Z,61.80
2018-05-24T20:46:14.103Z,61.50
2018-05-24T20:48:41.109Z,61.50
2018-05-24T20:51:08.962Z,61.50
2018-05-24T20:53:35.966Z,61.50
2018-05-24T20:56:03.744Z,61.50
2018-05-24T20:58:31.529Z,61.50
2018-05-24T21:00:58.652Z,61.40
2018-05-24T21:03:25.763Z,61.50
2018-05-24T21:05:53.538Z,61.40
2018-05-24T21:08:20.533Z,61.50
2018-05-24T21:10:47.533Z,61.50
2018-05-24T21:13:14.543Z,61.40
2018-05-24T21:15:41.566Z,61.50
2018-05-24T21:18:08.566Z,61.50
2018-05-24T21:20:35.581Z,61.40
2018-05-24T21:23:02.587Z,61.40
2018-05-24T21:25:30.361Z,61.40
2018-05-24T21:27:57.370Z,61.40
2018-05-24T21:30:24.422Z,61.40
2018-05-24T21:32:51.383Z,61.40
2018-05-24T21:35:19.158Z,61.50
2018-05-24T21:37:46.169Z,61.60
2018-05-24T21:40:14.158Z,61.40
2018-05-24T21:42:41.934Z,61.50
2018-05-24T21:45:09.704Z,61.40
2018-05-24T21:47:36.702Z,61.40
2018-05-24T21:50:03.702Z,61.50
2018-05-24T21:52:30.708Z,61.50
2018-05-24T21:54:57.733Z,61.50
2018-05-24T21:57:24.745Z,61.50
2018-05-24T21:59:51.747Z,61.50
2018-05-24T22:02:18.756Z,61.50
2018-05-24T22:04:45.753Z,61.60
2018-05-24T22:07:13.527Z,61.60
2018-05-24T22:09:41.286Z,61.60
2018-05-24T22:12:09.050Z,61.60
2018-05-24T22:14:37.981Z,61.60
2018-05-24T22:17:05.042Z,61.50
2018-05-24T22:19:32.750Z,61.60
2018-05-24T22:22:00.513Z,61.60
2018-05-24T22:24:28.279Z,62.50
2018-05-24T22:26:56.039Z,61.70
2018-05-24T22:29:23.858Z,61.70
2018-05-24T22:31:51.570Z,61.70
2018-05-24T22:34:19.326Z,61.70
2018-05-24T22:36:47.093Z,61.70
2018-05-24T22:39:14.853Z,61.70
2018-05-24T22:41:42.619Z,61.70
2018-05-24T22:44:10.382Z,61.70
2018-05-24T22:46:38.145Z,61.80
2018-05-24T22:49:05.911Z,61.70
2018-05-24T22:51:33.691Z,61.80
2018-05-24T22:54:01.448Z,61.70
2018-05-24T22:56:29.205Z,61.60
2018-05-24T22:58:56.967Z,61.80
2018-05-24T23:01:24.729Z,61.90
2018-05-24T23:03:52.490Z,61.80
2018-05-24T23:06:20.257Z,61.90
2018-05-24T23:08:48.014Z,61.80
2018-05-24T23:11:15.786Z,61.90
2018-05-24T23:13:43.566Z,61.80
2018-05-24T23:16:10.554Z,61.80
2018-05-24T23:18:37.548Z,61.90
2018-05-24T23:21:05.312Z,62.00
2018-05-24T23:23:33.073Z,62.00
2018-05-24T23:26:00.838Z,62.00
2018-05-24T23:28:28.593Z,61.90
2018-05-24T23:30:56.354Z,62.10
2018-05-24T23:33:24.127Z,62.20
2018-05-24T23:35:51.887Z,62.20
2018-05-24T23:38:19.651Z,62.20
2018-05-24T23:40:47.406Z,62.20
2018-05-24T23:43:15.176Z,62.00
2018-05-24T23:45:42.938Z,62.20
2018-05-24T23:48:10.705Z,62.40
2018-05-24T23:50:38.453Z,62.10
2018-05-24T23:53:05.454Z,62.10
2018-05-24T23:55:32.450Z,62.20
2018-05-24T23:57:59.453Z,62.00
